Time;durP1;ratioP1;P1;durP2;ratioP2;P2;SDS_P1;SDS_P2;PMS_P1;PMS_P2;Temp;Humidity;BMP_temperature;BMP_pressure;BME280_temperature;BME280_humidity;BME280_pressure;Samples;Min_cycle;Max_cycle;Signal;HPM_P1;HPM_P2
2023/01/16 00:00:36;;;;;;;11.30;8.55;;;;;;;;;;4986994;28;20340;-62
2023/01/16 00:03:02;;;;;;;11.70;9.53;;;;;;;;;;4997623;28;20418;-59
2023/01/16 00:05:27;;;;;;;12.65;9.40;;;;;;;;;;4990518;28;20289;-60
2023/01/16 00:07:52;;;;;;;10.70;8.93;;;;;;;;;;5014180;28;20033;-61
2023/01/16 00:10:17;;;;;;;11.53;9.20;;;;;;;;;;5011165;28;20499;-60
2023/01/16 00:12:43;;;;;;;12.02;9.27;;;;;;;;;;5009336;28;20350;-62
2023/01/16 00:15:08;;;;;;;11.50;8.40;;;;;;;;;;5008014;28;20026;-63
2023/01/16 00:17:33;;;;;;;10.90;8.82;;;;;;;;;;5012254;28;20288;-64
2023/01/16 00:19:58;;;;;;;11.68;9.27;;;;;;;;;;5002947;28;20042;-62
2023/01/16 00:22:24;;;;;;;10.93;8.80;;;;;;;;;;4988303;28;20061;-61
2023/01/16 00:24:49;;;;;;;12.07;9.70;;;;;;;;;;4991850;28;20285;-60
2023/01/16 00:27:14;;;;;;;13.65;9.77;;;;;;;;;;4998070;28;20306;-62
2023/01/16 00:29:40;;;;;;;11.23;8.80;;;;;;;;;;4989135;28;20566;-59
2023/01/16 00:32:05;;;;;;;11.88;9.02;;;;;;;;;;5007584;28;20682;-60
2023/01/16 00:34:30;;;;;;;11.80;9.33;;;;;;;;;;4988108;28;20097;-60
2023/01/16 00:36:55;;;;;;;12.82;9.98;;;;;;;;;;4988706;28;20356;-60
2023/01/16 00:39:20;;;;;;;12.43;9.13;;;;;;;;;;4996287;28;20529;-61
2023/01/16 00:41:46;;;;;;;11.25;8.82;;;;;;;;;;4994700;28;20336;-62
2023/01/16 00:44:11;;;;;;;11.57;8.70;;;;;;;;;;4988751;28;20050;-62
2023/01/16 00:46:36;;;;;;;11.50;9.17;;;;;;;;;;4995674;28;20296;-58
2023/01/16 00:49:02;;;;;;;11.55;8.70;;;;;;;;;;5006440;28;20289;-61
2023/01/16 00:51:27;;;;;;;11.90;9.50;;;;;;;;;;4999547;28;20498;-61
2023/01/16 00:53:52;;;;;;;11.70;9.27;;;;;;;;;;5018887;28;20045;-63
2023/01/16 00:56:17;;;;;;;13.77;9.27;;;;;;;;;;4994591;28;20073;-60
2023/01/16 00:58:43;;;;;;;11.57;9.40;;;;;;;;;;4988382;28;20305;-60
2023/01/16 01:01:08;;;;;;;12.82;9.88;;;;;;;;;;4988603;28;20293;-60
2023/01/16 01:03:33;;;;;;;12.33;9.37;;;;;;;;;;5003613;28;20034;-61
2023/01/16 01:05:58;;;;;;;11.33;9.20;;;;;;;;;;4987004;28;20825;-59
2023/01/16 01:08:24;;;;;;;11.83;9.70;;;;;;;;;;4991295;28;20313;-59
2023/01/16 01:10:49;;;;;;;11.98;8.88;;;;;;;;;;4986964;28;20273;-62
2023/01/16 01:13:14;;;;;;;12.35;9.48;;;;;;;;;;4987284;28;20498;-62
2023/01/16 01:15:39;;;;;;;11.65;9.10;;;;;;;;;;4987759;28;20034;-60
2023/01/16 01:18:05;;;;;;;12.40;9.40;;;;;;;;;;4985948;28;20099;-60
2023/01/16 01:20:30;;;;;;;11.38;9.43;;;;;;;;;;4985554;28;20379;-58
2023/01/16 01:22:55;;;;;;;10.95;9.00;;;;;;;;;;4986733;28;20169;-60
2023/01/16 01:25:21;;;;;;;11.38;9.20;;;;;;;;;;5001793;28;20066;-59
2023/01/16 01:27:46;;;;;;;12.57;9.60;;;;;;;;;;4986953;28;20046;-60
2023/01/16 01:30:11;;;;;;;11.40;8.50;;;;;;;;;;4987465;28;20932;-62
2023/01/16 01:32:37;;;;;;;13.32;9.88;;;;;;;;;;4987200;28;20739;-61
2023/01/16 01:35:03;;;;;;;11.30;9.10;;;;;;;;;;5001589;28;20034;-62
2023/01/16 01:37:28;;;;;;;11.23;9.05;;;;;;;;;;4987087;28;20038;-62
2023/01/16 01:39:53;;;;;;;11.83;9.10;;;;;;;;;;4988260;28;20037;-61
2023/01/16 01:45:06;;;;;;;11.75;8.98;;;;;;;;;;4987310;28;20421;-63
2023/01/16 01:47:35;;;;;;;11.55;8.73;;;;;;;;;;4988222;28;20112;-61
2023/01/16 01:50:01;;;;;;;11.48;9.48;;;;;;;;;;4995424;28;20526;-62
2023/01/16 01:52:27;;;;;;;11.70;9.50;;;;;;;;;;4986294;28;20101;-60
2023/01/16 01:54:56;;;;;;;11.13;9.02;;;;;;;;;;4991301;28;20109;-64
2023/01/16 01:57:26;;;;;;;10.90;9.03;;;;;;;;;;4994939;28;20168;-62
2023/01/16 01:59:54;;;;;;;11.85;9.70;;;;;;;;;;5010240;28;20273;-62
2023/01/16 02:02:20;;;;;;;11.75;8.93;;;;;;;;;;4986076;28;20090;-58
2023/01/16 02:04:46;;;;;;;12.25;9.68;;;;;;;;;;4966129;28;20534;-59
2023/01/16 02:07:12;;;;;;;11.20;9.40;;;;;;;;;;4985398;28;20042;-62
2023/01/16 02:09:37;;;;;;;10.45;8.32;;;;;;;;;;4986134;28;20521;-60
2023/01/16 02:12:04;;;;;;;11.17;9.27;;;;;;;;;;4985022;28;20495;-61
2023/01/16 02:14:30;;;;;;;11.57;9.05;;;;;;;;;;4985842;28;20369;-60
2023/01/16 02:19:53;;;;;;;10.82;8.77;;;;;;;;;;5007573;28;20064;-63
2023/01/16 02:22:37;;;;;;;11.98;9.18;;;;;;;;;;5013594;28;20041;-61
2023/01/16 02:25:13;;;;;;;12.05;9.43;;;;;;;;;;5005745;28;20038;-60
2023/01/16 02:27:57;;;;;;;11.80;9.05;;;;;;;;;;5007451;28;20145;-58
2023/01/16 02:30:25;;;;;;;11.90;9.40;;;;;;;;;;4997468;28;20476;-56
2023/01/16 02:32:56;;;;;;;11.32;9.20;;;;;;;;;;5009378;28;20049;-61
2023/01/16 02:35:42;;;;;;;11.73;9.15;;;;;;;;;;5003880;28;20026;-61
2023/01/16 02:38:26;;;;;;;11.95;9.07;;;;;;;;;;5005007;28;20076;-62
2023/01/16 02:40:58;;;;;;;10.90;8.82;;;;;;;;;;5005089;28;20044;-62
2023/01/16 02:43:42;;;;;;;13.13;9.63;;;;;;;;;;5009445;28;20119;-56
2023/01/16 02:46:11;;;;;;;11.75;9.02;;;;;;;;;;5022732;28;20054;-60
2023/01/16 02:48:37;;;;;;;11.27;8.95;;;;;;;;;;5007438;28;20042;-61
2023/01/16 02:51:03;;;;;;;12.05;9.32;;;;;;;;;;4988561;28;20050;-60
2023/01/16 02:53:31;;;;;;;12.23;9.55;;;;;;;;;;5007032;28;20076;-62
2023/01/16 02:56:02;;;;;;;12.75;9.75;;;;;;;;;;5017910;28;20516;-60
2023/01/16 02:58:27;;;;;;;10.65;9.02;;;;;;;;;;4997171;28;20037;-60
2023/01/16 03:00:53;;;;;;;11.63;9.00;;;;;;;;;;5010796;28;20513;-60
2023/01/16 03:03:31;;;;;;;11.32;9.07;;;;;;;;;;4989780;28;20285;-62
2023/01/16 03:05:57;;;;;;;11.02;8.95;;;;;;;;;;4990048;28;20052;-60
2023/01/16 03:08:28;;;;;;;11.75;9.30;;;;;;;;;;4979280;28;20132;-62
2023/01/16 03:11:09;;;;;;;11.90;8.93;;;;;;;;;;5004541;28;20526;-57
2023/01/16 03:13:48;;;;;;;10.68;8.65;;;;;;;;;;5012760;28;20482;-59
2023/01/16 03:16:22;;;;;;;12.20;9.13;;;;;;;;;;5002997;28;20545;-58
2023/01/16 03:18:54;;;;;;;11.00;8.60;;;;;;;;;;4987552;28;20387;-60
2023/01/16 03:21:39;;;;;;;11.30;8.80;;;;;;;;;;5004910;28;20042;-61
2023/01/16 03:24:04;;;;;;;10.95;9.07;;;;;;;;;;4986383;28;20048;-61
2023/01/16 03:26:31;;;;;;;10.93;8.57;;;;;;;;;;5004160;28;20026;-59
2023/01/16 03:29:05;;;;;;;10.90;8.73;;;;;;;;;;5002527;28;20563;-60
2023/01/16 03:31:42;;;;;;;11.48;8.82;;;;;;;;;;5003402;28;20084;-62
2023/01/16 03:34:12;;;;;;;12.15;9.23;;;;;;;;;;5001953;28;20338;-56
2023/01/16 03:36:41;;;;;;;11.88;8.93;;;;;;;;;;5005066;28;20488;-61
2023/01/16 03:39:07;;;;;;;11.00;8.68;;;;;;;;;;5004742;28;20025;-61
2023/01/16 03:41:33;;;;;;;12.43;9.43;;;;;;;;;;5004648;28;20098;-59
2023/01/16 03:44:03;;;;;;;10.65;8.95;;;;;;;;;;4987845;28;20048;-60
2023/01/16 03:46:28;;;;;;;;;;;;;;;;;;5005000;28;20034;-61
2023/01/16 03:48:55;;;;;;;11.00;8.63;;;;;;;;;;5004574;28;19921;-61
2023/01/16 03:51:24;;;;;;;10.77;8.82;;;;;;;;;;5004470;28;20092;-62
2023/01/16 03:53:57;;;;;;;11.13;8.40;;;;;;;;;;5003000;28;20034;-62
2023/01/16 03:56:43;;;;;;;10.95;8.50;;;;;;;;;;4994379;28;20273;-60
2023/01/16 03:59:09;;;;;;;11.85;8.10;;;;;;;;;;4987781;28;20038;-60
2023/01/16 04:01:37;;;;;;;11.10;8.73;;;;;;;;;;4989896;28;20065;-61
2023/01/16 04:04:02;;;;;;;11.27;7.93;;;;;;;;;;5005292;28;20471;-59
2023/01/16 04:06:33;;;;;;;11.32;8.60;;;;;;;;;;5020688;28;20041;-61
2023/01/16 04:08:59;;;;;;;12.23;8.73;;;;;;;;;;5002097;28;20050;-58
2023/01/16 04:11:24;;;;;;;10.77;8.82;;;;;;;;;;4987405;28;20030;-60
2023/01/16 04:13:50;;;;;;;10.47;8.53;;;;;;;;;;5004151;28;20169;-59
2023/01/16 04:16:17;;;;;;;10.45;8.38;;;;;;;;;;5006501;28;20300;-62
2023/01/16 04:18:43;;;;;;;10.63;8.38;;;;;;;;;;4992602;28;20052;-59
2023/01/16 04:21:08;;;;;;;10.83;8.20;;;;;;;;;;5014264;28;20045;-59
2023/01/16 04:23:34;;;;;;;9.80;7.88;;;;;;;;;;4999619;28;20288;-61
2023/01/16 04:25:59;;;;;;;11.60;8.02;;;;;;;;;;5007998;28;20042;-60
2023/01/16 04:28:25;;;;;;;10.63;8.02;;;;;;;;;;4990990;28;20045;-58
2023/01/16 04:30:50;;;;;;;11.75;8.63;;;;;;;;;;5008093;28;20044;-59
2023/01/16 04:33:15;;;;;;;11.63;8.53;;;;;;;;;;5013647;28;20045;-62
2023/01/16 04:35:40;;;;;;;11.95;8.38;;;;;;;;;;4999533;28;20328;-60
2023/01/16 04:38:06;;;;;;;10.50;7.80;;;;;;;;;;5007669;28;20088;-57
2023/01/16 04:40:31;;;;;;;9.07;7.57;;;;;;;;;;4990132;28;20346;-61
2023/01/16 04:42:56;;;;;;;9.53;7.80;;;;;;;;;;5007907;28;20467;-61
2023/01/16 04:45:21;;;;;;;11.60;8.73;;;;;;;;;;5007169;28;20561;-62
2023/01/16 04:47:47;;;;;;;12.13;9.27;;;;;;;;;;4989394;28;20675;-60
2023/01/16 04:50:12;;;;;;;10.88;8.43;;;;;;;;;;4992373;28;20084;-61
2023/01/16 04:52:37;;;;;;;11.50;8.77;;;;;;;;;;5007008;28;20034;-60
2023/01/16 04:55:03;;;;;;;11.15;7.95;;;;;;;;;;5007168;28;20026;-60
2023/01/16 04:57:28;;;;;;;10.23;8.23;;;;;;;;;;5006947;28;20041;-61
2023/01/16 04:59:53;;;;;;;10.00;7.83;;;;;;;;;;5007431;28;20442;-61
2023/01/16 05:02:18;;;;;;;9.97;7.93;;;;;;;;;;5012047;28;20285;-59
2023/01/16 05:04:44;;;;;;;11.60;8.50;;;;;;;;;;5010755;28;20272;-59
2023/01/16 05:07:09;;;;;;;10.80;8.07;;;;;;;;;;4997095;28;20308;-61
2023/01/16 05:09:34;;;;;;;11.63;9.03;;;;;;;;;;4989829;28;20421;-59
2023/01/16 05:11:59;;;;;;;10.82;8.73;;;;;;;;;;5006849;28;20661;-61
2023/01/16 05:14:25;;;;;;;11.87;8.07;;;;;;;;;;5006076;28;20066;-60
2023/01/16 05:16:50;;;;;;;12.93;8.15;;;;;;;;;;5007136;28;20768;-61
2023/01/16 05:19:15;;;;;;;12.40;8.20;;;;;;;;;;5007202;28;20045;-63
2023/01/16 05:21:40;;;;;;;14.03;9.17;;;;;;;;;;5008026;28;20304;-61
2023/01/16 05:24:06;;;;;;;15.40;8.87;;;;;;;;;;5006391;28;20291;-59
2023/01/16 05:26:31;;;;;;;19.92;8.88;;;;;;;;;;5006934;28;20817;-62
2023/01/16 05:28:57;;;;;;;13.35;9.10;;;;;;;;;;4989466;28;20153;-61
2023/01/16 05:31:22;;;;;;;16.35;8.70;;;;;;;;;;5004637;28;20113;-58
2023/01/16 05:33:48;;;;;;;16.95;8.70;;;;;;;;;;5005964;28;20030;-60
2023/01/16 05:36:13;;;;;;;16.10;9.17;;;;;;;;;;5006190;28;20499;-60
2023/01/16 05:38:38;;;;;;;21.90;9.27;;;;;;;;;;5005823;28;20281;-61
2023/01/16 05:41:04;;;;;;;17.37;9.63;;;;;;;;;;5015895;28;20319;-61
2023/01/16 05:43:29;;;;;;;18.10;9.50;;;;;;;;;;5005877;28;20296;-59
2023/01/16 05:45:54;;;;;;;20.58;10.15;;;;;;;;;;5005182;28;20084;-63
2023/01/16 05:48:19;;;;;;;20.50;8.85;;;;;;;;;;5011252;28;20054;-60
2023/01/16 05:50:45;;;;;;;19.40;9.30;;;;;;;;;;5007455;28;20081;-62
2023/01/16 05:53:10;;;;;;;21.17;8.50;;;;;;;;;;5012972;28;20379;-61
2023/01/16 05:55:42;;;;;;;16.53;8.10;;;;;;;;;;4981904;28;20772;-63
2023/01/16 05:58:08;;;;;;;17.65;8.95;;;;;;;;;;5007496;28;20296;-60
2023/01/16 06:00:34;;;;;;;19.65;9.32;;;;;;;;;;5007253;28;20046;-55
2023/01/16 06:02:59;;;;;;;19.03;9.40;;;;;;;;;;5009317;28;20137;-57
2023/01/16 06:05:24;;;;;;;21.95;9.15;;;;;;;;;;5006875;28;20312;-60
2023/01/16 06:07:53;;;;;;;20.17;9.30;;;;;;;;;;5008669;28;20434;-60
2023/01/16 06:10:19;;;;;;;19.92;8.77;;;;;;;;;;5005599;28;20292;-59
2023/01/16 06:12:45;;;;;;;16.88;9.13;;;;;;;;;;5010592;28;20034;-59
2023/01/16 06:15:10;;;;;;;16.57;9.50;;;;;;;;;;5007631;28;20034;-59
2023/01/16 06:17:35;;;;;;;15.63;9.07;;;;;;;;;;5007090;28;20299;-62
2023/01/16 06:20:00;;;;;;;16.53;8.63;;;;;;;;;;5006864;28;20056;-61
2023/01/16 06:22:26;;;;;;;19.13;9.57;;;;;;;;;;5006474;28;20296;-58
2023/01/16 06:24:51;;;;;;;17.23;9.18;;;;;;;;;;4971504;28;20701;-61
2023/01/16 06:27:16;;;;;;;16.08;8.05;;;;;;;;;;4990429;28;20050;-61
2023/01/16 06:29:43;;;;;;;15.67;8.17;;;;;;;;;;4988527;28;20096;-63
2023/01/16 06:32:08;;;;;;;22.02;9.77;;;;;;;;;;5006663;28;20272;-57
2023/01/16 06:34:33;;;;;;;17.00;8.30;;;;;;;;;;5013245;28;20530;-61
2023/01/16 06:36:58;;;;;;;16.03;8.80;;;;;;;;;;4994185;28;20285;-59
2023/01/16 06:39:24;;;;;;;15.98;8.65;;;;;;;;;;5000876;28;20284;-61
2023/01/16 06:41:49;;;;;;;15.85;8.60;;;;;;;;;;5007431;28;20076;-58
2023/01/16 06:44:14;;;;;;;14.67;8.53;;;;;;;;;;4992905;28;20495;-60
2023/01/16 06:46:39;;;;;;;16.38;8.50;;;;;;;;;;4967765;28;20316;-61
2023/01/16 06:49:05;;;;;;;18.77;8.57;;;;;;;;;;4981330;28;20476;-61
2023/01/16 06:51:30;;;;;;;18.97;8.77;;;;;;;;;;5000711;28;20694;-58
2023/01/16 06:53:55;;;;;;;17.33;8.73;;;;;;;;;;5006533;28;20342;-61
2023/01/16 06:56:20;;;;;;;17.42;8.48;;;;;;;;;;5006469;28;20061;-59
2023/01/16 06:58:46;;;;;;;16.10;8.75;;;;;;;;;;5009999;28;20030;-60
2023/01/16 07:01:11;;;;;;;12.00;8.10;;;;;;;;;;5005699;28;20535;-57
2023/01/16 07:03:36;;;;;;;14.63;8.20;;;;;;;;;;4997522;28;20563;-60
2023/01/16 07:06:02;;;;;;;15.50;7.73;;;;;;;;;;4992449;28;20395;-60
2023/01/16 07:08:27;;;;;;;21.00;8.45;;;;;;;;;;5002064;28;20320;-59
2023/01/16 07:10:52;;;;;;;14.52;8.35;;;;;;;;;;5002323;28;20561;-58
2023/01/16 07:13:22;;;;;;;16.67;8.93;;;;;;;;;;4996483;28;20762;-62
2023/01/16 07:24:00;;;;;;;16.10;8.23;;;;;;;;;;5004333;28;20089;-62
2023/01/16 07:26:26;;;;;;;14.70;8.52;;;;;;;;;;4987040;28;20061;-59
2023/01/16 07:28:51;;;;;;;16.27;8.15;;;;;;;;;;5004379;28;20486;-62
2023/01/16 07:31:16;;;;;;;15.23;8.27;;;;;;;;;;4970079;28;20061;-60
2023/01/16 07:33:41;;;;;;;14.27;7.77;;;;;;;;;;5003939;28;20034;-62
2023/01/16 07:36:07;;;;;;;15.50;8.23;;;;;;;;;;4987526;28;20308;-59
2023/01/16 07:38:32;;;;;;;11.80;8.00;;;;;;;;;;5003247;28;20610;-59
2023/01/16 07:40:57;;;;;;;13.00;8.03;;;;;;;;;;4993502;28;20041;-60
2023/01/16 07:43:23;;;;;;;13.88;7.65;;;;;;;;;;5005116;28;20300;-62
2023/01/16 07:45:52;;;;;;;13.80;8.17;;;;;;;;;;5004601;28;20030;-59
2023/01/16 07:48:20;;;;;;;17.15;8.50;;;;;;;;;;5006170;28;20343;-58
2023/01/16 07:50:52;;;;;;;14.75;8.45;;;;;;;;;;5004713;28;20068;-60
2023/01/16 07:53:21;;;;;;;14.80;8.15;;;;;;;;;;4976304;28;20074;-57
2023/01/16 07:55:46;;;;;;;14.37;8.33;;;;;;;;;;4984866;28;20038;-58
2023/01/16 07:58:12;;;;;;;14.25;8.07;;;;;;;;;;5007385;28;20378;-62
2023/01/16 08:00:37;;;;;;;14.30;8.20;;;;;;;;;;5010397;28;20040;-61
2023/01/16 08:03:02;;;;;;;13.33;7.57;;;;;;;;;;5005456;28;20308;-60
2023/01/16 08:05:27;;;;;;;13.45;8.45;;;;;;;;;;5004829;28;20284;-59
2023/01/16 08:07:53;;;;;;;11.53;7.60;;;;;;;;;;5005629;28;20053;-60
2023/01/16 08:10:18;;;;;;;12.20;8.25;;;;;;;;;;5006359;28;20945;-60
2023/01/16 08:12:43;;;;;;;12.32;7.55;;;;;;;;;;4987699;28;20072;-61
2023/01/16 08:15:09;;;;;;;12.10;7.90;;;;;;;;;;5004208;28;20038;-61
2023/01/16 08:17:34;;;;;;;14.88;8.23;;;;;;;;;;4987253;28;20284;-58
2023/01/16 08:19:59;;;;;;;13.20;8.20;;;;;;;;;;4986030;28;20045;-59
2023/01/16 08:22:24;;;;;;;12.70;8.40;;;;;;;;;;5005105;28;20269;-60
2023/01/16 08:24:50;;;;;;;12.98;8.52;;;;;;;;;;5004084;28;20371;-61
2023/01/16 08:27:15;;;;;;;13.07;8.65;;;;;;;;;;5005712;28;20516;-56
2023/01/16 08:29:40;;;;;;;12.80;7.90;;;;;;;;;;4974775;28;20069;-59
2023/01/16 08:32:05;;;;;;;17.60;8.67;;;;;;;;;;5006567;28;20813;-60
2023/01/16 08:34:31;;;;;;;13.35;7.80;;;;;;;;;;4999573;28;20377;-62
2023/01/16 08:36:56;;;;;;;11.47;7.60;;;;;;;;;;5012300;28;20095;-57
2023/01/16 08:39:21;;;;;;;16.47;8.27;;;;;;;;;;5008942;28;20799;-59
2023/01/16 08:52:43;;;;;;;12.90;7.82;;;;;;;;;;5006342;28;20045;-59
2023/01/16 08:55:09;;;;;;;12.00;7.88;;;;;;;;;;4985562;28;20493;-58
2023/01/16 08:57:34;;;;;;;13.15;8.60;;;;;;;;;;5002134;28;20475;-58
2023/01/16 09:00:00;;;;;;;11.52;7.95;;;;;;;;;;5004647;28;20033;-59
2023/01/16 09:02:25;;;;;;;12.90;8.37;;;;;;;;;;5010868;28;20488;-58
2023/01/16 09:04:50;;;;;;;12.32;8.55;;;;;;;;;;4987940;28;20327;-60
2023/01/16 09:07:15;;;;;;;12.63;8.07;;;;;;;;;;5003774;28;20037;-60
2023/01/16 09:09:41;;;;;;;11.80;8.17;;;;;;;;;;4953799;28;20497;-60
2023/01/16 09:14:54;;;;;;;12.55;7.95;;;;;;;;;;5006381;28;20479;-58
2023/01/16 09:17:20;;;;;;;13.70;8.30;;;;;;;;;;5007563;28;20522;-60
2023/01/16 09:19:45;;;;;;;12.00;8.35;;;;;;;;;;5006790;28;20046;-59
2023/01/16 09:22:10;;;;;;;12.57;8.10;;;;;;;;;;5014720;28;20119;-59
2023/01/16 09:24:35;;;;;;;11.93;8.13;;;;;;;;;;5004767;28;20034;-60
2023/01/16 09:27:01;;;;;;;12.17;8.53;;;;;;;;;;5007762;28;20053;-59
2023/01/16 09:29:27;;;;;;;13.30;8.30;;;;;;;;;;4991278;28;20269;-61
2023/01/16 09:31:52;;;;;;;13.80;8.18;;;;;;;;;;4986116;28;20534;-58
2023/01/16 09:34:18;;;;;;;10.23;7.65;;;;;;;;;;5003472;28;20364;-58
2023/01/16 09:36:43;;;;;;;12.13;7.97;;;;;;;;;;5006165;28;20026;-59
2023/01/16 09:39:08;;;;;;;12.70;8.35;;;;;;;;;;5006869;28;20395;-60
2023/01/16 09:44:19;;;;;;;12.85;8.73;;;;;;;;;;4990476;28;20045;-60
2023/01/16 09:46:45;;;;;;;12.23;8.23;;;;;;;;;;4987691;28;20034;-55
2023/01/16 09:49:14;;;;;;;14.70;9.00;;;;;;;;;;4975555;28;20351;-60
2023/01/16 09:51:40;;;;;;;11.77;8.68;;;;;;;;;;5005854;28;20510;-59
2023/01/16 09:59:46;;;;;;;13.98;9.02;;;;;;;;;;4996550;28;20061;-58
2023/01/16 10:02:11;;;;;;;12.13;8.35;;;;;;;;;;4988144;28;20026;-63
2023/01/16 10:04:36;;;;;;;11.70;8.27;;;;;;;;;;5006677;28;20550;-61
2023/01/16 10:07:05;;;;;;;11.93;7.80;;;;;;;;;;4988524;28;20556;-63
2023/01/16 10:09:56;;;;;;;12.55;8.13;;;;;;;;;;5003075;28;20053;-60
2023/01/16 10:12:21;;;;;;;12.98;8.30;;;;;;;;;;4977479;28;20455;-60
2023/01/16 10:15:07;;;;;;;15.57;12.17;;;;;;;;;;4989253;28;20025;-60
2023/01/16 10:17:32;;;;;;;14.02;11.02;;;;;;;;;;4977770;28;20277;-59
2023/01/16 10:20:06;;;;;;;16.10;11.37;;;;;;;;;;4992151;28;20550;-58
2023/01/16 10:22:43;;;;;;;14.50;11.15;;;;;;;;;;4973095;28;20069;-59
2023/01/16 10:25:15;;;;;;;14.20;10.50;;;;;;;;;;4993726;28;20413;-59
2023/01/16 10:27:44;;;;;;;15.57;11.43;;;;;;;;;;5009682;28;20045;-61
2023/01/16 10:30:13;;;;;;;14.25;10.43;;;;;;;;;;5004900;28;20037;-59
2023/01/16 10:32:38;;;;;;;16.03;10.57;;;;;;;;;;5005017;28;20046;-60
2023/01/16 10:35:06;;;;;;;12.53;9.67;;;;;;;;;;5005381;28;20037;-63
2023/01/16 10:37:32;;;;;;;13.82;9.40;;;;;;;;;;5003879;28;20038;-59
2023/01/16 10:40:07;;;;;;;13.23;9.52;;;;;;;;;;5006833;28;20118;-59
2023/01/16 10:50:56;;;;;;;13.25;9.02;;;;;;;;;;5007606;28;20132;-61
2023/01/16 10:53:21;;;;;;;11.75;8.75;;;;;;;;;;5013946;28;20439;-61
2023/01/16 10:55:47;;;;;;;13.23;8.73;;;;;;;;;;5006829;28;20473;-60
2023/01/16 10:58:12;;;;;;;12.48;8.68;;;;;;;;;;4987983;28;20280;-59
2023/01/16 11:00:38;;;;;;;11.23;8.50;;;;;;;;;;5006253;28;20034;-58
2023/01/16 11:03:21;;;;;;;11.43;8.30;;;;;;;;;;4996831;28;20291;-60
2023/01/16 11:05:46;;;;;;;13.13;9.05;;;;;;;;;;5003746;28;20045;-57
2023/01/16 11:08:15;;;;;;;11.65;8.45;;;;;;;;;;4986845;28;20411;-59
2023/01/16 11:10:41;;;;;;;12.20;9.40;;;;;;;;;;5005616;28;20022;-60
2023/01/16 11:19:31;;;;;;;11.77;8.45;;;;;;;;;;5004954;28;20041;-62
2023/01/16 11:22:07;;;;;;;11.05;8.65;;;;;;;;;;5003396;28;20438;-55
2023/01/16 11:24:33;;;;;;;11.60;8.63;;;;;;;;;;5004245;28;20645;-58
2023/01/16 11:26:58;;;;;;;10.93;8.20;;;;;;;;;;5004204;28;20041;-62
2023/01/16 11:29:25;;;;;;;11.57;8.80;;;;;;;;;;5003169;28;20049;-62
2023/01/16 11:31:56;;;;;;;11.55;8.63;;;;;;;;;;4987461;28;20580;-62
2023/01/16 11:34:21;;;;;;;11.43;7.95;;;;;;;;;;5006725;28;20069;-60
2023/01/16 11:36:46;;;;;;;11.18;8.07;;;;;;;;;;5016632;28;20394;-61
2023/01/16 11:39:21;;;;;;;11.03;8.00;;;;;;;;;;5004002;28;20502;-61
2023/01/16 11:41:47;;;;;;;10.95;8.23;;;;;;;;;;5003758;28;20640;-56
2023/01/16 11:47:04;;;;;;;12.18;8.40;;;;;;;;;;5004440;28;20092;-61
2023/01/16 11:49:34;;;;;;;9.73;7.95;;;;;;;;;;5000584;28;20045;-57
2023/01/16 11:52:03;;;;;;;;;;;;;;;;;;4995896;28;20033;-57
2023/01/16 11:54:28;;;;;;;10.52;7.60;;;;;;;;;;5000986;28;20188;-59
2023/01/16 11:57:00;;;;;;;10.32;7.90;;;;;;;;;;5002286;28;20272;-61
2023/01/16 11:59:28;;;;;;;11.90;8.35;;;;;;;;;;5004575;28;20026;-62
2023/01/16 12:02:21;;;;;;;10.75;8.05;;;;;;;;;;5014043;28;20567;-62
2023/01/16 12:07:49;;;;;;;11.32;8.15;;;;;;;;;;5008475;28;20076;-63
2023/01/16 12:10:17;;;;;;;11.43;7.65;;;;;;;;;;5001168;28;20077;-61
2023/01/16 12:15:37;;;;;;;13.23;8.35;;;;;;;;;;5003868;28;20044;-60
2023/01/16 12:18:05;;;;;;;11.75;8.38;;;;;;;;;;4969387;28;20038;-61
2023/01/16 12:20:51;;;;;;;11.85;7.88;;;;;;;;;;4970949;28;20070;-58
2023/01/16 12:23:20;;;;;;;10.75;8.50;;;;;;;;;;4997219;28;20045;-61
2023/01/16 12:25:54;;;;;;;13.47;8.17;;;;;;;;;;4986865;28;20030;-59
2023/01/16 12:28:23;;;;;;;9.55;7.22;;;;;;;;;;5002939;28;20435;-60
2023/01/16 12:31:16;;;;;;;11.00;8.13;;;;;;;;;;5003200;28;20030;-62
2023/01/16 12:33:42;;;;;;;10.73;7.65;;;;;;;;;;5001781;28;20121;-61
2023/01/16 12:36:07;;;;;;;9.87;7.47;;;;;;;;;;5005297;28;20184;-61
2023/01/16 12:39:05;;;;;;;11.40;7.93;;;;;;;;;;5005120;28;20041;-56
2023/01/16 12:44:19;;;;;;;11.43;8.20;;;;;;;;;;4996804;28;20045;-60
2023/01/16 12:46:45;;;;;;;10.02;7.78;;;;;;;;;;5007978;28;20042;-60
2023/01/16 12:49:10;;;;;;;9.87;7.37;;;;;;;;;;5008416;28;20116;-62
2023/01/16 12:51:44;;;;;;;9.97;7.47;;;;;;;;;;5008250;28;20034;-60
2023/01/16 12:54:20;;;;;;;10.20;7.78;;;;;;;;;;5008518;28;20459;-59
2023/01/16 12:57:05;;;;;;;11.32;9.07;;;;;;;;;;5008342;28;20469;-60
2023/01/16 12:59:32;;;;;;;11.65;7.63;;;;;;;;;;5001518;28;20113;-62
2023/01/16 13:02:21;;;;;;;11.18;8.00;;;;;;;;;;5008201;28;20091;-59
2023/01/16 13:04:47;;;;;;;11.45;7.60;;;;;;;;;;4963191;28;20510;-61
2023/01/16 13:07:14;;;;;;;9.70;7.32;;;;;;;;;;4990988;28;20089;-58
2023/01/16 13:13:20;;;;;;;10.70;7.80;;;;;;;;;;5007466;28;20038;-60
2023/01/16 13:15:27;;;;;;;9.02;7.30;;;;;;;;;;4997423;28;20096;-61
2023/01/16 13:17:55;;;;;;;10.18;7.75;;;;;;;;;;5007390;28;20036;-60
2023/01/16 13:20:20;;;;;;;11.07;7.90;;;;;;;;;;4990793;28;20046;-59
2023/01/16 13:22:52;;;;;;;11.10;7.70;;;;;;;;;;4999955;28;20398;-63
2023/01/16 13:25:18;;;;;;;10.23;7.70;;;;;;;;;;4990031;28;20092;-62
2023/01/16 13:27:45;;;;;;;10.13;7.63;;;;;;;;;;5004686;28;20030;-61
2023/01/16 13:30:14;;;;;;;11.40;8.45;;;;;;;;;;4988227;28;20030;-62
2023/01/16 13:32:42;;;;;;;10.20;7.47;;;;;;;;;;4995001;28;20046;-59
2023/01/16 13:35:08;;;;;;;10.45;7.45;;;;;;;;;;4984794;28;20411;-56
2023/01/16 13:37:36;;;;;;;9.40;7.53;;;;;;;;;;4987557;28;20438;-59
2023/01/16 13:40:09;;;;;;;10.02;7.35;;;;;;;;;;4984885;28;20042;-57
2023/01/16 13:42:34;;;;;;;11.15;7.38;;;;;;;;;;4985581;28;20487;-64
2023/01/16 13:47:45;;;;;;;9.95;7.90;;;;;;;;;;4986267;28;20430;-57
2023/01/16 13:50:17;;;;;;;9.52;7.53;;;;;;;;;;4987381;28;20010;-59
2023/01/16 13:52:42;;;;;;;10.07;7.57;;;;;;;;;;5000185;28;20150;-61
2023/01/16 13:55:14;;;;;;;10.37;7.13;;;;;;;;;;4999417;28;20117;-57
2023/01/16 13:57:40;;;;;;;8.48;6.88;;;;;;;;;;4982477;28;20297;-57
2023/01/16 14:00:11;;;;;;;9.53;7.10;;;;;;;;;;4985376;28;20084;-59
2023/01/16 14:02:37;;;;;;;9.52;6.78;;;;;;;;;;4982722;28;20285;-56
2023/01/16 14:05:15;;;;;;;8.82;7.00;;;;;;;;;;4983494;28;20536;-61
2023/01/16 14:10:45;;;;;;;9.90;7.43;;;;;;;;;;4987115;28;20033;-60
2023/01/16 14:13:15;;;;;;;9.73;7.15;;;;;;;;;;4984843;28;20045;-60
2023/01/16 14:18:38;;;;;;;9.45;6.93;;;;;;;;;;4983338;28;20040;-60
2023/01/16 14:21:04;;;;;;;9.65;6.95;;;;;;;;;;4999242;28;20046;-58
2023/01/16 14:26:17;;;;;;;9.15;7.13;;;;;;;;;;4990558;28;20037;-61
2023/01/16 14:28:46;;;;;;;8.77;6.60;;;;;;;;;;5000386;28;20045;-61
2023/01/16 14:31:18;;;;;;;9.20;6.85;;;;;;;;;;4997107;28;20488;-59
2023/01/16 14:33:43;;;;;;;8.63;7.07;;;;;;;;;;4980604;28;20485;-56
2023/01/16 14:36:09;;;;;;;8.27;6.38;;;;;;;;;;4976141;28;20070;-61
2023/01/16 14:38:36;;;;;;;8.80;6.75;;;;;;;;;;5002740;28;20048;-61
2023/01/16 14:55:31;;;;;;;9.32;6.93;;;;;;;;;;5067229;28;20079;-82
2023/01/16 14:57:56;;;;;;;8.30;6.65;;;;;;;;;;5065834;28;20115;-85
2023/01/16 15:00:21;;;;;;;8.15;6.55;;;;;;;;;;5041036;28;20056;-83
2023/01/16 15:02:51;;;;;;;8.88;6.75;;;;;;;;;;5046968;28;20045;-82
2023/01/16 15:05:17;;;;;;;;;;;;;;;;;;5051439;28;20041;-87
2023/01/16 15:08:09;;;;;;;8.75;6.60;;;;;;;;;;5044428;28;19931;-75
2023/01/16 15:10:41;;;;;;;8.63;6.78;;;;;;;;;;5049096;28;20036;-80
2023/01/16 15:13:26;;;;;;;8.55;6.75;;;;;;;;;;5048732;28;20047;-85
2023/01/16 15:16:04;;;;;;;9.45;6.47;;;;;;;;;;5055517;28;20109;-79
2023/01/16 15:21:59;;;;;;;7.60;6.22;;;;;;;;;;5055317;28;20044;-75
2023/01/16 15:24:06;;;;;;;8.23;6.47;;;;;;;;;;5182695;22;20082;-57
2023/01/16 15:26:40;;;;;;;8.40;6.53;;;;;;;;;;5028774;23;20177;-55
2023/01/16 15:29:15;;;;;;;7.95;5.97;;;;;;;;;;4954162;28;21615;-54
2023/01/16 15:31:44;;;;;;;7.43;5.90;;;;;;;;;;4953717;28;20117;-56
2023/01/16 15:34:16;;;;;;;8.43;6.68;;;;;;;;;;4983301;23;20479;-56
2023/01/16 15:36:41;;;;;;;8.13;6.22;;;;;;;;;;5010930;28;20447;-57
2023/01/16 15:39:27;;;;;;;8.75;6.55;;;;;;;;;;5008952;28;20041;-56
2023/01/16 15:47:43;;;;;;;7.57;6.10;;;;;;;;;;5012702;28;20072;-58
2023/01/16 15:50:17;;;;;;;7.95;6.25;;;;;;;;;;5007595;28;20143;-55
2023/01/16 15:52:43;;;;;;;7.97;6.32;;;;;;;;;;5038096;23;20060;-58
2023/01/16 15:55:21;;;;;;;7.22;6.13;;;;;;;;;;5046686;28;20511;-62
2023/01/16 15:57:47;;;;;;;8.65;6.10;;;;;;;;;;5062428;28;20041;-63
2023/01/16 16:00:28;;;;;;;11.82;7.18;;;;;;;;;;5043837;28;20051;-63
2023/01/16 16:03:14;;;;;;;7.78;6.13;;;;;;;;;;5060619;28;20114;-66
2023/01/16 16:05:39;;;;;;;7.93;6.13;;;;;;;;;;5061889;28;20036;-64
2023/01/16 16:08:06;;;;;;;9.48;6.20;;;;;;;;;;5041660;28;20445;-62
2023/01/16 16:13:16;;;;;;;7.95;5.68;;;;;;;;;;5047601;28;20048;-60
2023/01/16 16:18:36;;;;;;;7.18;5.78;;;;;;;;;;5048206;28;20106;-62
2023/01/16 16:21:05;;;;;;;7.37;5.80;;;;;;;;;;5066003;28;20036;-64
2023/01/16 16:23:30;;;;;;;8.47;6.33;;;;;;;;;;5031184;28;20864;-62